Westworth Village, Texas
Current Conditions -  °F | °C
As of 11:53 PM on Sunday 25 Jan 2015 (Local Time) from KFTW Reporting Station
Clear Clear  
Wind Chill: 46°   Ceiling: Unl
Heat Index: 46°   Visibility: 10mi
Dew Point: 26°   Wind: 0mph
Humidity: 46%   Direction: NA
Pressure: 30.2"   Gusts: NA
Location:  32.7763°N, 97.4092°W
Report Text: KFTW 260553Z 00000KT 10SM CLR 08/M03 A3020 RMK AO2 SLP226 T00781033 10144 20072 401780056 51019
Loading
Personal Weather Stations






























Interactive Weather Map New forecast layout! Learn more

10-Day Weather Forecast

Advertisements
Track Severe Weather on mobile